Decoded Metar for KEVV (EVANSVILLE in IN, USA) (IATA:EVV) | Meteo·Mobile Aviation Weather
aviador You're here:

KEVV Decoded Metar

EVANSVILLE in IN, USA
Report Time2018-09-21 09:54:00
UTC Time2018-09-21 10:47:48
Flight Rules vfr VFR
Wind220° at 06 kt
W.Decomp.*RWY 22: 6.0 kt HW 0.3 kt RCW
RWY 18: 4.4 kt HW 4.1 kt RCW
RWY 27: 4.1 kt HW 4.4 kt LCW
W.Rank220° ranks 3
Current wind is below 220° avg. (8.2)
Visibility9999 m
Phenomena:N/A
Clouds:Scattered 120 Hf
Expected CloudBase > 1,600 ft AGL from Temp-Dew spread
CeilingNone
Temp23°C (ISA +9)
Dew Point19°C (78% RH)
QNH1016 hPa
Density Alt1,594 ft
Elevation384 ft
Report Wrong Elevation
Raw Report
KEVV 210954Z AUTO 22006KT 10SM SCT120 23/19 A3000 RMK AO2 SLP155
T02330194=

Extra information for KEVV:More info

Metar Taf Metar & Taf Last 4 Metars F.Rules Stats Wind Profile Meteogram Temp Stats Airport Information Weather charts Add Link Nearby VenuesMetar ALERT Operation Metar Decoded Social comments

AIRNAV info for KEVV